createdAt,value
2022-09-10T00:00:13.700Z,977.72
2022-09-10T00:01:13.684Z,977.71
2022-09-10T00:02:13.707Z,977.71
2022-09-10T00:03:13.757Z,977.69
2022-09-10T00:04:13.656Z,977.71
2022-09-10T00:05:13.644Z,977.72
2022-09-10T00:06:13.616Z,977.70
2022-09-10T00:07:13.624Z,977.72
2022-09-10T00:08:13.592Z,977.73
2022-09-10T00:09:13.592Z,977.70
2022-09-10T00:10:13.567Z,977.66
2022-09-10T00:11:13.572Z,977.70
2022-09-10T00:12:13.683Z,977.72
2022-09-10T00:13:13.553Z,977.71
2022-09-10T00:14:13.564Z,977.71
2022-09-10T00:15:13.524Z,977.71
2022-09-10T00:16:13.532Z,977.69
2022-09-10T00:17:13.505Z,977.68
2022-09-10T00:18:13.493Z,977.68
2022-09-10T00:19:13.498Z,977.66
2022-09-10T00:20:13.463Z,977.68
2022-09-10T00:21:13.466Z,977.68
2022-09-10T00:22:13.433Z,977.70
2022-09-10T00:23:13.442Z,977.66
2022-09-10T00:24:13.419Z,977.65
2022-09-10T00:25:13.414Z,977.63
2022-09-10T00:26:13.394Z,977.60
2022-09-10T00:27:13.391Z,977.63
2022-09-10T00:28:13.364Z,977.66
2022-09-10T00:29:13.364Z,977.69
2022-09-10T00:30:13.348Z,977.68
2022-09-10T00:31:13.416Z,977.63
2022-09-10T00:32:13.327Z,977.68
2022-09-10T00:33:13.323Z,977.67
2022-09-10T00:34:13.297Z,977.68
2022-09-10T00:35:13.304Z,977.67
2022-09-10T00:36:13.283Z,977.64
2022-09-10T00:37:13.274Z,977.66
2022-09-10T00:38:13.244Z,977.62
2022-09-10T00:39:13.254Z,977.66
2022-09-10T00:40:13.235Z,977.67
2022-09-10T00:41:13.233Z,977.63
2022-09-10T00:42:13.211Z,977.66
2022-09-10T00:43:13.214Z,977.65
2022-09-10T00:44:13.184Z,977.64
2022-09-10T00:45:13.185Z,977.62
2022-09-10T00:46:13.163Z,977.64
2022-09-10T00:47:13.195Z,977.65
2022-09-10T00:48:13.144Z,977.65
2022-09-10T00:49:13.152Z,977.64
2022-09-10T00:50:13.119Z,977.62
2022-09-10T00:51:13.114Z,977.64
2022-09-10T00:52:13.093Z,977.61
2022-09-10T00:53:13.105Z,977.63
2022-09-10T00:54:13.075Z,977.66
2022-09-10T00:55:13.073Z,977.65
2022-09-10T00:56:13.063Z,977.65
2022-09-10T00:57:13.051Z,977.63
2022-09-10T00:58:13.025Z,977.64
2022-09-10T00:59:13.037Z,977.61
2022-09-10T01:00:13.001Z,977.65
2022-09-10T01:01:13.021Z,977.63
2022-09-10T01:02:13.007Z,977.64
2022-09-10T01:03:12.985Z,977.65
2022-09-10T01:04:12.964Z,977.65
2022-09-10T01:05:12.954Z,977.64
2022-09-10T01:06:12.934Z,977.62
2022-09-10T01:07:12.943Z,977.65
2022-09-10T01:08:12.914Z,977.61
2022-09-10T01:09:12.915Z,977.63
2022-09-10T01:10:12.886Z,977.65
2022-09-10T01:11:12.892Z,977.62
2022-09-10T01:12:12.866Z,977.66
2022-09-10T01:13:12.885Z,977.63
2022-09-10T01:14:12.864Z,977.62
2022-09-10T01:15:12.855Z,977.60
2022-09-10T01:16:12.892Z,977.61
2022-09-10T01:17:12.827Z,977.62
2022-09-10T01:18:13.304Z,977.56
2022-09-10T01:19:12.861Z,977.63
2022-09-10T01:20:12.784Z,977.60
2022-09-10T01:21:12.774Z,977.61
2022-09-10T01:22:12.745Z,977.58
2022-09-10T01:23:17.484Z,977.58
2022-09-10T01:24:13.739Z,977.59
2022-09-10T01:25:12.735Z,977.57
2022-09-10T01:26:12.706Z,977.58
2022-09-10T01:27:12.706Z,977.61
2022-09-10T01:28:12.675Z,977.60
2022-09-10T01:29:12.686Z,977.57
2022-09-10T01:30:12.655Z,977.55
2022-09-10T01:31:12.709Z,977.56
2022-09-10T01:32:12.647Z,977.54
2022-09-10T01:33:13.472Z,977.51
2022-09-10T01:34:12.619Z,977.55
2022-09-10T01:35:12.614Z,977.55
2022-09-10T01:36:12.601Z,977.55
2022-09-10T01:37:12.595Z,977.58
2022-09-10T01:38:12.620Z,977.58
2022-09-10T01:39:12.574Z,977.64
2022-09-10T01:40:12.656Z,977.63
2022-09-10T01:41:12.557Z,977.61
2022-09-10T01:42:12.532Z,977.60
2022-09-10T01:43:12.533Z,977.52
2022-09-10T01:44:12.504Z,977.55
2022-09-10T01:45:12.674Z,977.53
2022-09-10T01:46:12.484Z,977.53
2022-09-10T01:47:12.482Z,977.54
2022-09-10T01:48:12.474Z,977.52
2022-09-10T01:49:12.493Z,977.58
2022-09-10T01:50:12.435Z,977.53
2022-09-10T01:51:12.916Z,977.53
2022-09-10T01:52:12.414Z,977.49
2022-09-10T01:53:13.034Z,977.52
2022-09-10T01:54:13.034Z,977.47
2022-09-10T01:55:12.403Z,977.48
2022-09-10T01:56:12.384Z,977.49
2022-09-10T01:57:12.375Z,977.47
2022-09-10T01:58:12.355Z,977.44
2022-09-10T01:59:12.362Z,977.45
2022-09-10T02:00:12.467Z,977.40
2022-09-10T02:01:12.390Z,977.37
2022-09-10T02:02:12.326Z,977.44
2022-09-10T02:03:12.314Z,977.40
2022-09-10T02:04:12.295Z,977.35
2022-09-10T02:05:12.313Z,977.36
2022-09-10T02:06:12.269Z,977.39
2022-09-10T02:07:12.274Z,977.33
2022-09-10T02:08:12.245Z,977.34
2022-09-10T02:09:12.245Z,977.31
2022-09-10T02:10:12.646Z,977.36
2022-09-10T02:11:12.232Z,977.28
2022-09-10T02:12:12.224Z,977.28
2022-09-10T02:13:12.220Z,977.30
2022-09-10T02:14:12.203Z,977.33
2022-09-10T02:15:12.206Z,977.33
2022-09-10T02:16:12.185Z,977.32
2022-09-10T02:17:12.176Z,977.30
2022-09-10T02:18:12.157Z,977.30
2022-09-10T02:19:12.136Z,977.26
2022-09-10T02:20:12.144Z,977.36
2022-09-10T02:21:12.122Z,977.33
2022-09-10T02:22:12.099Z,977.30
2022-09-10T02:23:12.098Z,977.32
2022-09-10T02:24:12.075Z,977.30
2022-09-10T02:25:12.076Z,977.29
2022-09-10T02:26:12.074Z,977.27
2022-09-10T02:27:12.068Z,977.28
2022-09-10T02:28:12.035Z,977.33
2022-09-10T02:29:12.035Z,977.35
2022-09-10T02:30:12.019Z,977.30
2022-09-10T02:31:12.059Z,977.33
2022-09-10T02:32:12.005Z,977.32
2022-09-10T02:33:12.006Z,977.37
2022-09-10T02:34:12.712Z,977.30
2022-09-10T02:35:12.025Z,977.37
2022-09-10T02:36:11.957Z,977.38
2022-09-10T02:37:11.949Z,977.32
2022-09-10T02:38:12.616Z,977.33
2022-09-10T02:39:11.935Z,977.33
2022-09-10T02:40:11.942Z,977.35
2022-09-10T02:41:11.905Z,977.36
2022-09-10T02:42:11.875Z,977.37
2022-09-10T02:43:11.886Z,977.35
2022-09-10T02:44:11.858Z,977.38
2022-09-10T02:45:11.876Z,977.37
2022-09-10T02:46:11.835Z,977.32
2022-09-10T02:47:11.846Z,977.31
2022-09-10T02:48:11.806Z,977.35
2022-09-10T02:49:11.859Z,977.37
2022-09-10T02:50:12.199Z,977.38
2022-09-10T02:51:11.833Z,977.34
2022-09-10T02:52:11.782Z,977.34
2022-09-10T02:53:11.774Z,977.41
2022-09-10T02:54:12.575Z,977.36
2022-09-10T02:55:12.477Z,977.35
2022-09-10T02:56:11.816Z,977.37
2022-09-10T02:57:11.737Z,977.32
2022-09-10T02:58:11.715Z,977.35
2022-09-10T02:59:11.717Z,977.32
2022-09-10T03:00:11.749Z,977.35
2022-09-10T03:01:11.759Z,977.38
2022-09-10T03:02:11.714Z,977.31
2022-09-10T03:03:11.676Z,977.30
2022-09-10T03:04:11.649Z,977.32
2022-09-10T03:05:11.837Z,977.32
2022-09-10T03:06:11.631Z,977.28
2022-09-10T03:07:11.626Z,977.27
2022-09-10T03:08:11.603Z,977.27
2022-09-10T03:09:11.616Z,977.26
2022-09-10T03:10:11.578Z,977.27
2022-09-10T03:11:11.720Z,977.26
2022-09-10T03:12:11.557Z,977.27
2022-09-10T03:13:11.567Z,977.24
2022-09-10T03:14:11.545Z,977.24
2022-09-10T03:15:11.545Z,977.24
2022-09-10T03:16:12.270Z,977.23
2022-09-10T03:17:11.525Z,977.25
2022-09-10T03:18:11.516Z,977.29
2022-09-10T03:19:11.512Z,977.26
2022-09-10T03:20:11.476Z,977.23
2022-09-10T03:21:12.286Z,977.27
2022-09-10T03:22:12.205Z,977.27
2022-09-10T03:23:11.475Z,977.25
2022-09-10T03:24:14.349Z,977.27
2022-09-10T03:25:11.453Z,977.24
2022-09-10T03:26:11.421Z,977.25
2022-09-10T03:27:12.232Z,977.27
2022-09-10T03:28:11.415Z,977.25
2022-09-10T03:29:11.406Z,977.26
2022-09-10T03:30:11.366Z,977.26
2022-09-10T03:31:11.435Z,977.27
2022-09-10T03:32:11.664Z,977.28
2022-09-10T03:33:12.175Z,977.29
2022-09-10T03:34:11.335Z,977.26
2022-09-10T03:35:12.225Z,977.27
2022-09-10T03:36:12.149Z,977.30
2022-09-10T03:37:12.037Z,977.27
2022-09-10T03:38:12.196Z,977.26
2022-09-10T03:39:11.697Z,977.28
2022-09-10T03:40:11.359Z,977.25
2022-09-10T03:41:11.271Z,977.27
2022-09-10T03:42:11.235Z,977.27
2022-09-10T03:43:11.424Z,977.28
2022-09-10T03:44:11.212Z,977.24
2022-09-10T03:45:11.236Z,977.25
2022-09-10T03:46:11.209Z,977.27
2022-09-10T03:47:11.186Z,977.24
2022-09-10T03:48:11.167Z,977.25
2022-09-10T03:49:11.912Z,977.26
2022-09-10T03:50:11.145Z,977.27
2022-09-10T03:51:11.148Z,977.27
2022-09-10T03:52:11.118Z,977.24
2022-09-10T03:53:12.034Z,977.26
2022-09-10T03:54:11.170Z,977.28
2022-09-10T03:55:11.137Z,977.28
2022-09-10T03:56:12.004Z,977.27
2022-09-10T03:57:11.920Z,977.30
2022-09-10T03:58:11.429Z,977.27
2022-09-10T03:59:11.072Z,977.31
2022-09-10T04:00:11.125Z,977.30
2022-09-10T04:01:11.077Z,977.29
2022-09-10T04:02:11.292Z,977.25
2022-09-10T04:03:11.010Z,977.24
2022-09-10T04:04:10.986Z,977.22
2022-09-10T04:05:10.995Z,977.19
2022-09-10T04:06:11.016Z,977.24
2022-09-10T04:07:10.977Z,977.15
2022-09-10T04:08:11.075Z,977.17
2022-09-10T04:09:11.299Z,977.17
2022-09-10T04:10:10.918Z,977.19
2022-09-10T04:11:10.920Z,977.25
2022-09-10T04:12:10.913Z,977.21
2022-09-10T04:13:10.906Z,977.22
2022-09-10T04:14:10.879Z,977.27
2022-09-10T04:15:10.917Z,977.27
2022-09-10T04:16:10.932Z,977.25
2022-09-10T04:17:10.896Z,977.29
2022-09-10T04:18:11.683Z,977.25
2022-09-10T04:19:10.894Z,977.29
2022-09-10T04:20:10.847Z,977.29
2022-09-10T04:21:10.795Z,977.27
2022-09-10T04:22:10.811Z,977.28
2022-09-10T04:23:10.778Z,977.27
2022-09-10T04:24:10.796Z,977.27
2022-09-10T04:25:10.777Z,977.27
2022-09-10T04:26:10.759Z,977.23
2022-09-10T04:27:10.744Z,977.27
2022-09-10T04:28:10.777Z,977.27
2022-09-10T04:29:11.451Z,977.27
2022-09-10T04:30:10.766Z,977.28
2022-09-10T04:31:10.726Z,977.26
2022-09-10T04:32:10.729Z,977.26
2022-09-10T04:33:10.667Z,977.26
2022-09-10T04:34:10.675Z,977.24
2022-09-10T04:35:11.367Z,977.27
2022-09-10T04:36:11.488Z,977.31
2022-09-10T04:37:10.677Z,977.30
2022-09-10T04:38:11.556Z,977.27
2022-09-10T04:39:11.077Z,977.27
2022-09-10T04:40:10.767Z,977.26
2022-09-10T04:41:10.676Z,977.26
2022-09-10T04:42:10.586Z,977.31
2022-09-10T04:43:10.554Z,977.26
2022-09-10T04:44:10.566Z,977.28
2022-09-10T04:45:10.557Z,977.29
2022-09-10T04:46:10.624Z,977.30
2022-09-10T04:47:10.826Z,977.31
2022-09-10T04:48:10.526Z,977.31
2022-09-10T04:49:10.528Z,977.31
2022-09-10T04:50:10.499Z,977.32
2022-09-10T04:51:18.308Z,977.32
2022-09-10T04:52:12.257Z,977.35
2022-09-10T04:53:10.468Z,977.38
2022-09-10T04:54:10.567Z,977.35
2022-09-10T04:55:10.568Z,977.36
2022-09-10T04:56:11.148Z,977.37
2022-09-10T04:57:11.272Z,977.38
2022-09-10T04:58:11.167Z,977.39
2022-09-10T04:59:10.428Z,977.39
2022-09-10T05:00:10.425Z,977.42
2022-09-10T05:01:10.383Z,977.43
2022-09-10T05:02:11.115Z,977.48
2022-09-10T05:03:11.205Z,977.44
2022-09-10T05:04:10.368Z,977.46
2022-09-10T05:05:10.324Z,977.42
2022-09-10T05:06:10.317Z,977.48
2022-09-10T05:07:10.307Z,977.44
2022-09-10T05:08:10.320Z,977.45
2022-09-10T05:09:11.139Z,977.46
2022-09-10T05:10:10.607Z,977.46
2022-09-10T05:11:11.198Z,977.45
2022-09-10T05:12:10.299Z,977.48
2022-09-10T05:13:11.006Z,977.44
2022-09-10T05:14:10.958Z,977.44
2022-09-10T05:15:11.079Z,977.46
2022-09-10T05:16:10.269Z,977.43
2022-09-10T05:17:11.138Z,977.44
2022-09-10T05:18:11.039Z,977.43
2022-09-10T05:19:10.241Z,977.40
2022-09-10T05:20:10.194Z,977.44
2022-09-10T05:21:10.162Z,977.40
2022-09-10T05:22:10.156Z,977.44
2022-09-10T05:23:10.127Z,977.44
2022-09-10T05:24:10.981Z,977.42
2022-09-10T05:25:10.879Z,977.41
2022-09-10T05:26:10.587Z,977.42
2022-09-10T05:27:10.947Z,977.42
2022-09-10T05:28:10.088Z,977.43
2022-09-10T05:29:10.808Z,977.44
2022-09-10T05:30:10.906Z,977.50
2022-09-10T05:31:10.085Z,977.45
2022-09-10T05:32:10.047Z,977.49
2022-09-10T05:33:10.019Z,977.53
2022-09-10T05:34:10.118Z,977.51
2022-09-10T05:35:10.127Z,977.54
2022-09-10T05:36:10.131Z,977.50
2022-09-10T05:37:10.247Z,977.55
2022-09-10T05:38:09.997Z,977.54
2022-09-10T05:39:09.988Z,977.56
2022-09-10T05:40:10.748Z,977.55
2022-09-10T05:41:10.669Z,977.53
2022-09-10T05:42:09.938Z,977.54
2022-09-10T05:43:09.907Z,977.54
2022-09-10T05:44:09.906Z,977.50
2022-09-10T05:45:09.887Z,977.55
2022-09-10T05:46:09.919Z,977.55
2022-09-10T05:47:09.874Z,977.54
2022-09-10T05:48:09.865Z,977.54
2022-09-10T05:49:09.856Z,977.56
2022-09-10T05:50:09.841Z,977.54
2022-09-10T05:51:09.827Z,977.58
2022-09-10T05:52:10.590Z,977.55
2022-09-10T05:53:09.832Z,977.55
2022-09-10T05:54:09.799Z,977.56
2022-09-10T05:55:09.841Z,977.53
2022-09-10T05:56:09.777Z,977.56
2022-09-10T05:57:10.626Z,977.58
2022-09-10T05:58:09.804Z,977.59
2022-09-10T05:59:10.690Z,977.61
2022-09-10T06:00:09.888Z,977.58
2022-09-10T06:01:09.701Z,977.58
2022-09-10T06:02:09.795Z,977.56
2022-09-10T06:03:10.280Z,977.60
2022-09-10T06:04:09.678Z,977.57
2022-09-10T06:05:09.658Z,977.59
2022-09-10T06:06:09.658Z,977.59
2022-09-10T06:07:09.637Z,977.63
2022-09-10T06:08:09.674Z,977.62
2022-09-10T06:09:09.612Z,977.65
2022-09-10T06:10:09.621Z,977.64
2022-09-10T06:11:09.598Z,977.62
2022-09-10T06:12:09.590Z,977.65
2022-09-10T06:13:09.561Z,977.62
2022-09-10T06:14:09.770Z,977.65
2022-09-10T06:15:09.547Z,977.68
2022-09-10T06:16:09.614Z,977.67
2022-09-10T06:17:09.539Z,977.68
2022-09-10T06:18:09.639Z,977.72
2022-09-10T06:19:10.309Z,977.72
2022-09-10T06:20:09.509Z,977.75
2022-09-10T06:21:09.487Z,977.77
2022-09-10T06:22:09.480Z,977.74
2022-09-10T06:23:09.453Z,977.78
2022-09-10T06:24:09.458Z,977.80
2022-09-10T06:25:09.765Z,977.76
2022-09-10T06:26:09.424Z,977.80
2022-09-10T06:27:09.410Z,977.78
2022-09-10T06:28:09.399Z,977.80
2022-09-10T06:29:09.395Z,977.81
2022-09-10T06:30:09.377Z,977.82
2022-09-10T06:31:09.380Z,977.85
2022-09-10T06:32:09.377Z,977.83
2022-09-10T06:33:09.337Z,977.87
2022-09-10T06:34:09.339Z,977.83
2022-09-10T06:35:09.307Z,977.87
2022-09-10T06:36:09.318Z,977.89
2022-09-10T06:37:09.287Z,977.89
2022-09-10T06:38:09.282Z,977.90
2022-09-10T06:39:09.267Z,977.90
2022-09-10T06:40:10.165Z,977.89
2022-09-10T06:41:09.332Z,977.91
2022-09-10T06:42:09.260Z,977.89
2022-09-10T06:43:09.218Z,977.91
2022-09-10T06:44:09.209Z,977.95
2022-09-10T06:45:09.188Z,977.95
2022-09-10T06:46:24.826Z,977.94
2022-09-10T06:47:46.289Z,977.93
2022-09-10T06:49:10.173Z,977.92
2022-09-10T06:50:09.147Z,977.91
2022-09-10T06:51:09.129Z,977.92
2022-09-10T06:52:09.138Z,977.91
2022-09-10T06:53:09.107Z,977.92
2022-09-10T06:54:09.107Z,977.94
2022-09-10T06:55:09.076Z,977.96
2022-09-10T06:56:09.080Z,977.92
2022-09-10T06:57:09.058Z,977.98
2022-09-10T06:58:09.067Z,978.00
2022-09-10T06:59:09.042Z,977.98
2022-09-10T07:00:09.036Z,977.98
2022-09-10T07:01:10.959Z,978.00
2022-09-10T07:02:09.061Z,977.97
2022-09-10T07:03:08.988Z,978.00
2022-09-10T07:04:08.998Z,977.99
2022-09-10T07:05:08.962Z,977.98
2022-09-10T07:06:08.967Z,977.99
2022-09-10T07:07:08.950Z,978.00
2022-09-10T07:08:08.939Z,978.01
2022-09-10T07:09:08.917Z,978.02
2022-09-10T07:10:08.916Z,978.02
2022-09-10T07:11:08.916Z,978.03
2022-09-10T07:12:08.909Z,978.05
2022-09-10T07:13:08.870Z,978.03
2022-09-10T07:14:08.878Z,978.07
2022-09-10T07:15:08.841Z,978.03
2022-09-10T07:16:08.904Z,978.01
2022-09-10T07:17:08.858Z,978.01
2022-09-10T07:18:08.828Z,978.08
2022-09-10T07:19:08.799Z,978.03
2022-09-10T07:20:08.813Z,978.00
2022-09-10T07:21:08.787Z,978.00
2022-09-10T07:22:08.788Z,977.98
2022-09-10T07:23:12.269Z,978.00
2022-09-10T07:24:08.763Z,977.99
2022-09-10T07:25:08.728Z,978.01
2022-09-10T07:26:08.737Z,978.01
2022-09-10T07:27:08.719Z,978.03
2022-09-10T07:28:08.719Z,978.04
2022-09-10T07:29:08.693Z,978.04
2022-09-10T07:30:08.692Z,978.03
2022-09-10T07:31:08.698Z,978.06
2022-09-10T07:32:12.834Z,978.07
2022-09-10T07:33:08.650Z,978.13
2022-09-10T07:34:08.653Z,978.08
2022-09-10T07:35:08.620Z,978.05
2022-09-10T07:36:08.629Z,978.08
2022-09-10T07:37:08.627Z,978.05
2022-09-10T07:38:08.602Z,978.05
2022-09-10T07:39:08.589Z,978.09
2022-09-10T07:40:08.628Z,978.09
2022-09-10T07:41:08.827Z,978.13
2022-09-10T07:42:08.842Z,978.14
2022-09-10T07:43:08.571Z,978.10
2022-09-10T07:44:08.539Z,978.07
2022-09-10T07:45:08.517Z,978.09
2022-09-10T07:46:08.562Z,978.09
2022-09-10T07:47:08.529Z,978.12
2022-09-10T07:48:08.500Z,978.14
2022-09-10T07:49:08.508Z,978.14
2022-09-10T07:50:08.471Z,978.13
2022-09-10T07:51:08.449Z,978.15
2022-09-10T07:52:08.479Z,978.13
2022-09-10T07:53:08.591Z,978.13
2022-09-10T07:54:08.420Z,978.14
2022-09-10T07:55:08.410Z,978.14
2022-09-10T07:56:08.419Z,978.15
2022-09-10T07:57:08.424Z,978.19
2022-09-10T07:58:08.382Z,978.13
2022-09-10T07:59:08.361Z,978.15
2022-09-10T08:00:08.362Z,978.14
2022-09-10T08:01:08.387Z,978.13
2022-09-10T08:02:09.147Z,978.15
2022-09-10T08:03:08.329Z,978.15
2022-09-10T08:04:08.346Z,978.19
2022-09-10T08:05:08.319Z,978.12
2022-09-10T08:06:08.301Z,978.16
2022-09-10T08:07:08.281Z,978.14
2022-09-10T08:08:08.325Z,978.12
2022-09-10T08:09:08.270Z,978.14
2022-09-10T08:10:08.252Z,978.19
2022-09-10T08:11:11.820Z,978.17
2022-09-10T08:12:08.230Z,978.17
2022-09-10T08:13:08.202Z,978.17
2022-09-10T08:14:08.241Z,978.17
2022-09-10T08:15:08.186Z,978.17
2022-09-10T08:16:08.261Z,978.21
2022-09-10T08:17:08.233Z,978.22
2022-09-10T08:18:08.171Z,978.18
2022-09-10T08:19:08.141Z,978.25
2022-09-10T08:20:08.190Z,978.23
2022-09-10T08:21:08.121Z,978.29
2022-09-10T08:22:13.252Z,978.30
2022-09-10T08:23:08.504Z,978.25
2022-09-10T08:24:08.103Z,978.25
2022-09-10T08:25:08.103Z,978.29
2022-09-10T08:26:08.878Z,978.37
2022-09-10T08:27:08.085Z,978.30
2022-09-10T08:28:08.932Z,978.36
2022-09-10T08:29:08.833Z,978.33
2022-09-10T08:30:08.087Z,978.36
2022-09-10T08:31:08.151Z,978.39
2022-09-10T08:32:08.042Z,978.38
2022-09-10T08:33:07.996Z,978.36
2022-09-10T08:34:07.985Z,978.41
2022-09-10T08:35:07.979Z,978.39
2022-09-10T08:36:08.677Z,978.43
2022-09-10T08:37:07.971Z,978.44
2022-09-10T08:38:08.181Z,978.42
2022-09-10T08:39:08.658Z,978.39
2022-09-10T08:40:08.861Z,978.44
2022-09-10T08:41:07.954Z,978.43
2022-09-10T08:42:08.610Z,978.44
2022-09-10T08:43:08.771Z,978.43
2022-09-10T08:44:07.905Z,978.46
2022-09-10T08:45:08.133Z,978.46
2022-09-10T08:46:08.055Z,978.46
2022-09-10T08:47:08.452Z,978.44
2022-09-10T08:48:08.545Z,978.41
2022-09-10T08:49:08.483Z,978.41
2022-09-10T08:50:07.853Z,978.41
2022-09-10T08:51:07.840Z,978.41
2022-09-10T08:52:08.672Z,978.39
2022-09-10T08:53:08.574Z,978.38
2022-09-10T08:54:08.483Z,978.39
2022-09-10T08:55:08.422Z,978.36
2022-09-10T08:56:08.555Z,978.38
2022-09-10T08:57:08.450Z,978.37
2022-09-10T08:58:07.741Z,978.37
2022-09-10T08:59:07.754Z,978.39
2022-09-10T09:00:08.413Z,978.39
2022-09-10T09:01:08.430Z,978.34
2022-09-10T09:02:07.781Z,978.33
2022-09-10T09:03:07.713Z,978.35
2022-09-10T09:04:08.542Z,978.32
2022-09-10T09:05:08.171Z,978.32
2022-09-10T09:06:07.623Z,978.35
2022-09-10T09:07:07.631Z,978.34
2022-09-10T09:08:07.662Z,978.32
2022-09-10T09:09:08.871Z,978.32
2022-09-10T09:10:08.485Z,978.35
2022-09-10T09:11:07.603Z,978.32
2022-09-10T09:12:07.543Z,978.34
2022-09-10T09:13:07.563Z,978.33
2022-09-10T09:14:07.572Z,978.35
2022-09-10T09:15:09.108Z,978.37
2022-09-10T09:16:08.443Z,978.35
2022-09-10T09:17:07.552Z,978.36
2022-09-10T09:18:07.484Z,978.34
2022-09-10T09:19:07.541Z,978.35
2022-09-10T09:20:07.494Z,978.39
2022-09-10T09:21:08.193Z,978.35
2022-09-10T09:22:07.484Z,978.37
2022-09-10T09:23:07.482Z,978.38
2022-09-10T09:24:15.443Z,978.43
2022-09-10T09:25:08.423Z,978.44
2022-09-10T09:26:07.482Z,978.44
2022-09-10T09:27:08.133Z,978.44
2022-09-10T09:28:07.594Z,978.48
2022-09-10T09:29:08.196Z,978.48
2022-09-10T09:30:07.617Z,978.47
2022-09-10T09:31:09.440Z,978.47
2022-09-10T09:32:08.173Z,978.52
2022-09-10T09:33:07.337Z,978.49
2022-09-10T09:34:08.226Z,978.51
2022-09-10T09:35:07.315Z,978.57
2022-09-10T09:36:08.034Z,978.57
2022-09-10T09:37:07.975Z,978.54
2022-09-10T09:38:07.464Z,978.55
2022-09-10T09:39:07.265Z,978.59
2022-09-10T09:40:07.535Z,978.58
2022-09-10T09:41:07.246Z,978.57
2022-09-10T09:42:07.236Z,978.56
2022-09-10T09:43:07.921Z,978.56
2022-09-10T09:44:07.216Z,978.53
2022-09-10T09:45:07.944Z,978.54
2022-09-10T09:46:07.220Z,978.50
2022-09-10T09:47:07.186Z,978.54
2022-09-10T09:48:07.912Z,978.53
2022-09-10T09:49:07.200Z,978.51
2022-09-10T09:50:07.137Z,978.53
2022-09-10T09:51:07.159Z,978.55
2022-09-10T09:52:07.113Z,978.53
2022-09-10T09:53:07.943Z,978.52
2022-09-10T09:54:39.287Z,978.48
2022-09-10T09:55:14.881Z,978.45
2022-09-10T09:56:08.959Z,978.46
2022-09-10T09:57:07.111Z,978.47
2022-09-10T09:58:07.044Z,978.45
2022-09-10T09:59:10.831Z,978.47
2022-09-10T10:00:08.093Z,978.44
2022-09-10T10:01:07.140Z,978.44
2022-09-10T10:02:07.227Z,978.46
2022-09-10T10:03:07.748Z,978.46
2022-09-10T10:04:07.907Z,978.39
2022-09-10T10:05:07.050Z,978.43
2022-09-10T10:06:06.965Z,978.40
2022-09-10T10:07:06.975Z,978.42
2022-09-10T10:08:06.934Z,978.40
2022-09-10T10:09:07.690Z,978.41
2022-09-10T10:10:07.625Z,978.37
2022-09-10T10:11:07.025Z,978.39
2022-09-10T10:12:07.648Z,978.43
2022-09-10T10:13:06.895Z,978.41
2022-09-10T10:14:07.719Z,978.40
2022-09-10T10:15:07.624Z,978.39
2022-09-10T10:16:07.594Z,978.34
2022-09-10T10:17:06.908Z,978.35
2022-09-10T10:18:06.836Z,978.38
2022-09-10T10:19:07.747Z,978.36
2022-09-10T10:20:07.649Z,978.40
2022-09-10T10:21:07.355Z,978.40
2022-09-10T10:22:07.815Z,978.38
2022-09-10T10:23:06.779Z,978.35
2022-09-10T10:24:06.797Z,978.38
2022-09-10T10:25:07.687Z,978.39
2022-09-10T10:26:07.587Z,978.38
2022-09-10T10:27:07.502Z,978.38
2022-09-10T10:28:06.717Z,978.35
2022-09-10T10:29:06.743Z,978.36
2022-09-10T10:30:06.740Z,978.35
2022-09-10T10:31:06.710Z,978.32
2022-09-10T10:32:06.695Z,978.33
2022-09-10T10:33:06.667Z,978.31
2022-09-10T10:34:07.587Z,978.33
2022-09-10T10:35:06.677Z,978.34
2022-09-10T10:36:07.398Z,978.34
2022-09-10T10:37:07.556Z,978.38
2022-09-10T10:38:06.615Z,978.37
2022-09-10T10:39:06.632Z,978.33
2022-09-10T10:40:07.561Z,978.31
2022-09-10T10:41:06.595Z,978.32
2022-09-10T10:42:06.758Z,978.27
2022-09-10T10:43:06.579Z,978.26
2022-09-10T10:44:06.634Z,978.34
2022-09-10T10:45:07.297Z,978.30
2022-09-10T10:46:11.211Z,978.33
2022-09-10T10:47:07.548Z,978.35
2022-09-10T10:48:06.815Z,978.33
2022-09-10T10:49:06.521Z,978.36
2022-09-10T10:50:06.717Z,978.35
2022-09-10T10:51:06.477Z,978.36
2022-09-10T10:52:06.460Z,978.32
2022-09-10T10:53:06.455Z,978.37
2022-09-10T10:54:07.240Z,978.36
2022-09-10T10:55:06.435Z,978.36
2022-09-10T10:56:06.457Z,978.42
2022-09-10T10:57:06.418Z,978.40
2022-09-10T10:58:06.385Z,978.38
2022-09-10T10:59:06.503Z,978.36
2022-09-10T11:00:06.439Z,978.41
2022-09-10T11:01:06.370Z,978.43
2022-09-10T11:02:06.389Z,978.41
2022-09-10T11:03:06.348Z,978.39
2022-09-10T11:04:06.309Z,978.40
2022-09-10T11:05:06.356Z,978.34
2022-09-10T11:06:06.360Z,978.34
2022-09-10T11:07:06.359Z,978.36
2022-09-10T11:08:06.277Z,978.35
2022-09-10T11:09:06.270Z,978.35
2022-09-10T11:10:06.266Z,978.38
2022-09-10T11:11:06.268Z,978.31
2022-09-10T11:12:06.221Z,978.34
2022-09-10T11:13:06.326Z,978.31
2022-09-10T11:14:06.210Z,978.24
2022-09-10T11:15:06.191Z,978.28
2022-09-10T11:16:06.243Z,978.28
2022-09-10T11:17:07.048Z,978.28
2022-09-10T11:18:06.197Z,978.31
2022-09-10T11:19:06.193Z,978.30
2022-09-10T11:20:27.119Z,978.29
2022-09-10T11:21:07.984Z,978.25
2022-09-10T11:22:06.883Z,978.22
2022-09-10T11:23:06.145Z,978.24
2022-09-10T11:24:06.879Z,978.23
2022-09-10T11:25:07.045Z,978.21
2022-09-10T11:26:06.944Z,978.27
2022-09-10T11:27:06.850Z,978.22
2022-09-10T11:28:06.088Z,978.20
2022-09-10T11:29:06.150Z,978.20
2022-09-10T11:30:06.563Z,978.21
2022-09-10T11:31:07.045Z,978.24
2022-09-10T11:32:06.135Z,978.21
2022-09-10T11:33:06.804Z,978.22
2022-09-10T11:34:06.030Z,978.22
2022-09-10T11:35:05.970Z,978.21
2022-09-10T11:36:05.957Z,978.18
2022-09-10T11:37:05.970Z,978.22
2022-09-10T11:38:06.821Z,978.25
2022-09-10T11:39:05.940Z,978.25
2022-09-10T11:40:06.020Z,978.19
2022-09-10T11:41:05.922Z,978.22
2022-09-10T11:42:05.893Z,978.18
2022-09-10T11:43:06.019Z,978.22
2022-09-10T11:44:05.882Z,978.20
2022-09-10T11:45:05.883Z,978.16
2022-09-10T11:46:06.610Z,978.17
2022-09-10T11:47:06.727Z,978.13
2022-09-10T11:48:05.868Z,978.14
2022-09-10T11:49:05.851Z,978.19
2022-09-10T11:50:05.845Z,978.14
2022-09-10T11:51:05.815Z,978.07
2022-09-10T11:52:05.783Z,978.09
2022-09-10T11:53:05.794Z,978.11
2022-09-10T11:54:05.843Z,978.13
2022-09-10T11:55:05.767Z,978.14
2022-09-10T11:56:05.744Z,978.17
2022-09-10T11:57:06.525Z,978.13
2022-09-10T11:58:05.713Z,978.17
2022-09-10T11:59:05.712Z,978.13
2022-09-10T12:00:05.712Z,978.10
2022-09-10T12:01:05.739Z,978.11
2022-09-10T12:02:05.729Z,978.14
2022-09-10T12:03:05.676Z,978.10
2022-09-10T12:04:05.644Z,978.11
2022-09-10T12:05:06.536Z,978.06
2022-09-10T12:06:06.437Z,978.11
2022-09-10T12:07:05.652Z,978.14
2022-09-10T12:08:05.702Z,978.10
2022-09-10T12:09:05.606Z,978.09
2022-09-10T12:10:05.614Z,978.05
2022-09-10T12:11:05.834Z,978.04
2022-09-10T12:12:05.564Z,978.08
2022-09-10T12:13:05.573Z,978.03
2022-09-10T12:14:06.221Z,978.08
2022-09-10T12:15:05.565Z,978.04
2022-09-10T12:16:06.317Z,978.00
2022-09-10T12:17:06.418Z,978.02
2022-09-10T12:18:05.575Z,977.99
2022-09-10T12:19:05.507Z,977.99
2022-09-10T12:20:05.472Z,978.04
2022-09-10T12:21:05.473Z,978.04
2022-09-10T12:22:05.486Z,978.03
2022-09-10T12:23:05.495Z,978.06
2022-09-10T12:24:05.425Z,978.06
2022-09-10T12:25:05.435Z,978.00
2022-09-10T12:26:05.535Z,978.00
2022-09-10T12:27:06.205Z,978.03
2022-09-10T12:28:05.453Z,978.00
2022-09-10T12:29:05.390Z,978.02